sensor_id;sensor_type;location;lat;lon;timestamp;P1;durP1;ratioP1;P2;durP2;ratioP2
48789;SDS011;41718;51.980;5.734;2023-01-25T00:01:58;31.20;;;16.35;;
48789;SDS011;41718;51.980;5.734;2023-01-25T00:07:00;32.85;;;17.83;;
48789;SDS011;41718;51.980;5.734;2023-01-25T00:12:02;27.95;;;17.05;;
48789;SDS011;41718;51.980;5.734;2023-01-25T00:17:04;27.20;;;15.63;;
48789;SDS011;41718;51.980;5.734;2023-01-25T00:22:05;27.02;;;16.48;;
48789;SDS011;41718;51.980;5.734;2023-01-25T00:27:08;32.45;;;17.48;;
48789;SDS011;41718;51.980;5.734;2023-01-25T00:37:12;33.08;;;16.92;;
48789;SDS011;41718;51.980;5.734;2023-01-25T00:42:20;28.13;;;17.55;;
48789;SDS011;41718;51.980;5.734;2023-01-25T00:47:23;31.02;;;18.27;;
48789;SDS011;41718;51.980;5.734;2023-01-25T00:52:26;29.02;;;17.00;;
48789;SDS011;41718;51.980;5.734;2023-01-25T00:57:28;27.88;;;16.92;;
48789;SDS011;41718;51.980;5.734;2023-01-25T01:02:30;31.38;;;18.10;;
48789;SDS011;41718;51.980;5.734;2023-01-25T01:07:31;32.50;;;17.77;;
48789;SDS011;41718;51.980;5.734;2023-01-25T01:12:33;33.45;;;18.73;;
48789;SDS011;41718;51.980;5.734;2023-01-25T01:17:35;30.95;;;18.60;;
48789;SDS011;41718;51.980;5.734;2023-01-25T01:22:36;29.98;;;16.92;;
48789;SDS011;41718;51.980;5.734;2023-01-25T01:27:37;34.50;;;18.42;;
48789;SDS011;41718;51.980;5.734;2023-01-25T01:32:39;32.30;;;18.27;;
48789;SDS011;41718;51.980;5.734;2023-01-25T01:37:41;34.05;;;18.02;;
48789;SDS011;41718;51.980;5.734;2023-01-25T01:43:04;28.33;;;17.10;;
48789;SDS011;41718;51.980;5.734;2023-01-25T01:53:36;35.10;;;20.08;;
48789;SDS011;41718;51.980;5.734;2023-01-25T01:58:41;32.63;;;18.85;;
48789;SDS011;41718;51.980;5.734;2023-01-25T02:03:44;34.33;;;18.33;;
48789;SDS011;41718;51.980;5.734;2023-01-25T02:08:46;29.27;;;16.05;;
48789;SDS011;41718;51.980;5.734;2023-01-25T02:13:48;30.58;;;17.60;;
48789;SDS011;41718;51.980;5.734;2023-01-25T02:18:50;32.05;;;18.33;;
48789;SDS011;41718;51.980;5.734;2023-01-25T02:23:55;38.03;;;19.58;;
48789;SDS011;41718;51.980;5.734;2023-01-25T02:29:01;35.28;;;18.48;;
48789;SDS011;41718;51.980;5.734;2023-01-25T02:34:05;32.25;;;18.42;;
48789;SDS011;41718;51.980;5.734;2023-01-25T02:39:08;31.20;;;16.38;;
48789;SDS011;41718;51.980;5.734;2023-01-25T02:44:14;26.67;;;13.65;;
48789;SDS011;41718;51.980;5.734;2023-01-25T02:49:18;35.22;;;18.70;;
48789;SDS011;41718;51.980;5.734;2023-01-25T02:54:35;40.47;;;21.63;;
48789;SDS011;41718;51.980;5.734;2023-01-25T02:59:36;34.67;;;19.17;;
48789;SDS011;41718;51.980;5.734;2023-01-25T03:04:38;31.95;;;19.08;;
48789;SDS011;41718;51.980;5.734;2023-01-25T03:09:39;38.85;;;19.58;;
48789;SDS011;41718;51.980;5.734;2023-01-25T03:14:41;32.28;;;17.25;;
48789;SDS011;41718;51.980;5.734;2023-01-25T03:19:44;31.10;;;20.13;;
48789;SDS011;41718;51.980;5.734;2023-01-25T03:24:46;33.13;;;19.17;;
48789;SDS011;41718;51.980;5.734;2023-01-25T03:29:47;30.23;;;17.52;;
48789;SDS011;41718;51.980;5.734;2023-01-25T03:34:49;39.33;;;20.27;;
48789;SDS011;41718;51.980;5.734;2023-01-25T03:39:50;30.88;;;17.90;;
48789;SDS011;41718;51.980;5.734;2023-01-25T03:44:51;36.10;;;19.20;;
48789;SDS011;41718;51.980;5.734;2023-01-25T03:49:53;35.67;;;19.38;;
48789;SDS011;41718;51.980;5.734;2023-01-25T03:54:54;34.42;;;19.02;;
48789;SDS011;41718;51.980;5.734;2023-01-25T03:59:56;31.25;;;17.70;;
48789;SDS011;41718;51.980;5.734;2023-01-25T04:04:57;39.17;;;21.75;;
48789;SDS011;41718;51.980;5.734;2023-01-25T04:09:59;28.35;;;17.05;;
48789;SDS011;41718;51.980;5.734;2023-01-25T04:15:00;38.15;;;20.08;;
48789;SDS011;41718;51.980;5.734;2023-01-25T04:20:02;32.58;;;18.60;;
48789;SDS011;41718;51.980;5.734;2023-01-25T04:25:04;32.08;;;20.38;;
48789;SDS011;41718;51.980;5.734;2023-01-25T04:30:05;42.55;;;22.80;;
48789;SDS011;41718;51.980;5.734;2023-01-25T04:35:08;34.15;;;21.00;;
48789;SDS011;41718;51.980;5.734;2023-01-25T04:40:10;38.83;;;19.85;;
48789;SDS011;41718;51.980;5.734;2023-01-25T04:45:12;36.20;;;19.25;;
48789;SDS011;41718;51.980;5.734;2023-01-25T04:50:13;34.72;;;20.88;;
48789;SDS011;41718;51.980;5.734;2023-01-25T04:55:15;39.97;;;22.98;;
48789;SDS011;41718;51.980;5.734;2023-01-25T05:00:17;32.25;;;18.38;;
48789;SDS011;41718;51.980;5.734;2023-01-25T05:05:19;39.03;;;20.42;;
48789;SDS011;41718;51.980;5.734;2023-01-25T05:10:21;35.10;;;18.17;;
48789;SDS011;41718;51.980;5.734;2023-01-25T05:15:22;38.58;;;20.73;;
48789;SDS011;41718;51.980;5.734;2023-01-25T05:20:24;37.67;;;22.80;;
48789;SDS011;41718;51.980;5.734;2023-01-25T05:25:25;34.50;;;18.35;;
48789;SDS011;41718;51.980;5.734;2023-01-25T05:30:45;36.63;;;20.50;;
48789;SDS011;41718;51.980;5.734;2023-01-25T05:35:47;36.03;;;20.85;;
48789;SDS011;41718;51.980;5.734;2023-01-25T05:40:48;36.45;;;22.02;;
48789;SDS011;41718;51.980;5.734;2023-01-25T05:45:53;37.42;;;19.30;;
48789;SDS011;41718;51.980;5.734;2023-01-25T05:50:56;37.25;;;19.27;;
48789;SDS011;41718;51.980;5.734;2023-01-25T05:56:04;39.05;;;21.38;;
48789;SDS011;41718;51.980;5.734;2023-01-25T06:01:07;35.85;;;20.55;;
48789;SDS011;41718;51.980;5.734;2023-01-25T06:06:09;40.88;;;20.77;;
48789;SDS011;41718;51.980;5.734;2023-01-25T06:11:14;37.83;;;21.60;;
48789;SDS011;41718;51.980;5.734;2023-01-25T06:16:18;43.70;;;22.52;;
48789;SDS011;41718;51.980;5.734;2023-01-25T06:21:21;37.38;;;20.52;;
48789;SDS011;41718;51.980;5.734;2023-01-25T06:26:23;38.13;;;20.00;;
48789;SDS011;41718;51.980;5.734;2023-01-25T06:31:24;43.20;;;22.10;;
48789;SDS011;41718;51.980;5.734;2023-01-25T06:36:26;32.97;;;16.27;;
48789;SDS011;41718;51.980;5.734;2023-01-25T06:41:27;44.97;;;22.48;;
48789;SDS011;41718;51.980;5.734;2023-01-25T06:46:30;42.15;;;21.58;;
48789;SDS011;41718;51.980;5.734;2023-01-25T06:51:32;31.67;;;18.40;;
48789;SDS011;41718;51.980;5.734;2023-01-25T06:56:34;40.65;;;20.92;;
48789;SDS011;41718;51.980;5.734;2023-01-25T07:01:35;38.97;;;21.25;;
48789;SDS011;41718;51.980;5.734;2023-01-25T07:06:38;39.78;;;22.77;;
48789;SDS011;41718;51.980;5.734;2023-01-25T07:11:39;41.53;;;20.10;;
48789;SDS011;41718;51.980;5.734;2023-01-25T07:16:41;41.15;;;23.13;;
48789;SDS011;41718;51.980;5.734;2023-01-25T07:21:42;38.15;;;17.92;;
48789;SDS011;41718;51.980;5.734;2023-01-25T07:26:44;35.78;;;19.00;;
48789;SDS011;41718;51.980;5.734;2023-01-25T07:31:46;45.08;;;23.35;;
48789;SDS011;41718;51.980;5.734;2023-01-25T07:36:47;50.63;;;24.05;;
48789;SDS011;41718;51.980;5.734;2023-01-25T07:41:49;39.47;;;21.48;;
48789;SDS011;41718;51.980;5.734;2023-01-25T07:46:51;40.55;;;21.25;;
48789;SDS011;41718;51.980;5.734;2023-01-25T07:51:53;42.42;;;22.02;;
48789;SDS011;41718;51.980;5.734;2023-01-25T07:56:55;44.35;;;23.35;;
48789;SDS011;41718;51.980;5.734;2023-01-25T08:01:58;41.10;;;20.35;;
48789;SDS011;41718;51.980;5.734;2023-01-25T08:07:00;44.63;;;22.90;;
48789;SDS011;41718;51.980;5.734;2023-01-25T08:12:01;36.97;;;21.77;;
48789;SDS011;41718;51.980;5.734;2023-01-25T08:17:03;44.10;;;21.90;;
48789;SDS011;41718;51.980;5.734;2023-01-25T08:22:06;36.92;;;18.05;;
48789;SDS011;41718;51.980;5.734;2023-01-25T08:27:07;40.60;;;20.58;;
48789;SDS011;41718;51.980;5.734;2023-01-25T08:32:09;36.03;;;20.35;;
48789;SDS011;41718;51.980;5.734;2023-01-25T08:37:11;50.80;;;24.25;;
48789;SDS011;41718;51.980;5.734;2023-01-25T08:42:12;42.80;;;19.95;;
48789;SDS011;41718;51.980;5.734;2023-01-25T08:47:14;41.05;;;20.55;;
48789;SDS011;41718;51.980;5.734;2023-01-25T08:52:15;45.92;;;23.73;;
48789;SDS011;41718;51.980;5.734;2023-01-25T08:57:17;47.40;;;22.70;;
48789;SDS011;41718;51.980;5.734;2023-01-25T09:02:21;49.20;;;23.98;;
48789;SDS011;41718;51.980;5.734;2023-01-25T09:07:23;42.88;;;22.48;;
48789;SDS011;41718;51.980;5.734;2023-01-25T09:12:24;44.30;;;19.88;;
48789;SDS011;41718;51.980;5.734;2023-01-25T09:17:26;33.78;;;16.90;;
48789;SDS011;41718;51.980;5.734;2023-01-25T09:22:27;37.92;;;20.40;;
48789;SDS011;41718;51.980;5.734;2023-01-25T09:27:29;45.03;;;22.70;;
48789;SDS011;41718;51.980;5.734;2023-01-25T09:32:31;40.53;;;20.10;;
48789;SDS011;41718;51.980;5.734;2023-01-25T09:37:32;49.85;;;24.73;;
48789;SDS011;41718;51.980;5.734;2023-01-25T09:47:53;47.45;;;24.67;;
48789;SDS011;41718;51.980;5.734;2023-01-25T09:58:39;51.92;;;23.42;;
48789;SDS011;41718;51.980;5.734;2023-01-25T10:03:55;46.90;;;22.98;;
48789;SDS011;41718;51.980;5.734;2023-01-25T10:14:27;48.15;;;22.92;;
48789;SDS011;41718;51.980;5.734;2023-01-25T10:30:28;46.45;;;22.98;;
48789;SDS011;41718;51.980;5.734;2023-01-25T10:35:35;51.53;;;25.88;;
48789;SDS011;41718;51.980;5.734;2023-01-25T10:41:19;47.72;;;23.85;;
48789;SDS011;41718;51.980;5.734;2023-01-25T10:46:32;41.17;;;17.55;;
48789;SDS011;41718;51.980;5.734;2023-01-25T10:51:35;49.67;;;22.40;;
48789;SDS011;41718;51.980;5.734;2023-01-25T10:56:37;48.15;;;23.80;;
48789;SDS011;41718;51.980;5.734;2023-01-25T11:01:39;53.80;;;25.00;;
48789;SDS011;41718;51.980;5.734;2023-01-25T11:06:45;44.17;;;21.20;;
48789;SDS011;41718;51.980;5.734;2023-01-25T11:11:57;51.45;;;25.17;;
48789;SDS011;41718;51.980;5.734;2023-01-25T11:17:01;45.00;;;22.15;;
48789;SDS011;41718;51.980;5.734;2023-01-25T11:27:19;47.95;;;23.80;;
48789;SDS011;41718;51.980;5.734;2023-01-25T11:32:25;54.45;;;25.25;;
48789;SDS011;41718;51.980;5.734;2023-01-25T11:42:56;67.10;;;29.30;;
48789;SDS011;41718;51.980;5.734;2023-01-25T11:59:23;49.85;;;26.30;;
48789;SDS011;41718;51.980;5.734;2023-01-25T12:26:04;56.58;;;27.83;;
48789;SDS011;41718;51.980;5.734;2023-01-25T12:31:18;60.25;;;30.65;;
48789;SDS011;41718;51.980;5.734;2023-01-25T12:36:39;54.83;;;26.13;;
48789;SDS011;41718;51.980;5.734;2023-01-25T12:41:48;37.85;;;17.65;;
48789;SDS011;41718;51.980;5.734;2023-01-25T12:52:21;51.28;;;24.60;;
48789;SDS011;41718;51.980;5.734;2023-01-25T12:57:30;51.28;;;26.80;;
48789;SDS011;41718;51.980;5.734;2023-01-25T13:03:00;42.95;;;20.05;;
48789;SDS011;41718;51.980;5.734;2023-01-25T13:19:38;44.80;;;21.33;;
48789;SDS011;41718;51.980;5.734;2023-01-25T13:40:35;55.25;;;24.95;;
48789;SDS011;41718;51.980;5.734;2023-01-25T13:45:39;48.33;;;21.13;;
48789;SDS011;41718;51.980;5.734;2023-01-25T13:55:55;55.80;;;24.50;;
48789;SDS011;41718;51.980;5.734;2023-01-25T14:00:59;49.92;;;24.80;;
48789;SDS011;41718;51.980;5.734;2023-01-25T14:06:08;49.13;;;17.98;;
48789;SDS011;41718;51.980;5.734;2023-01-25T14:11:18;54.35;;;25.30;;
48789;SDS011;41718;51.980;5.734;2023-01-25T14:16:21;48.50;;;22.77;;
48789;SDS011;41718;51.980;5.734;2023-01-25T14:21:22;52.80;;;27.08;;
48789;SDS011;41718;51.980;5.734;2023-01-25T14:26:25;55.70;;;26.77;;
48789;SDS011;41718;51.980;5.734;2023-01-25T14:31:33;63.35;;;30.60;;
48789;SDS011;41718;51.980;5.734;2023-01-25T14:36:36;63.03;;;28.92;;
48789;SDS011;41718;51.980;5.734;2023-01-25T14:41:38;55.40;;;27.00;;
48789;SDS011;41718;51.980;5.734;2023-01-25T14:52:28;65.63;;;27.42;;
48789;SDS011;41718;51.980;5.734;2023-01-25T14:57:37;49.20;;;23.02;;
48789;SDS011;41718;51.980;5.734;2023-01-25T15:02:49;60.28;;;27.52;;
48789;SDS011;41718;51.980;5.734;2023-01-25T15:07:57;53.70;;;24.42;;
48789;SDS011;41718;51.980;5.734;2023-01-25T15:23:52;66.07;;;30.77;;
48789;SDS011;41718;51.980;5.734;2023-01-25T15:29:06;61.95;;;30.20;;
48789;SDS011;41718;51.980;5.734;2023-01-25T15:34:19;56.47;;;23.73;;
48789;SDS011;41718;51.980;5.734;2023-01-25T15:39:30;67.05;;;29.85;;
48789;SDS011;41718;51.980;5.734;2023-01-25T15:44:32;60.85;;;27.27;;
48789;SDS011;41718;51.980;5.734;2023-01-25T15:49:34;68.93;;;28.50;;
48789;SDS011;41718;51.980;5.734;2023-01-25T15:54:39;69.32;;;32.10;;
48789;SDS011;41718;51.980;5.734;2023-01-25T15:59:48;61.25;;;28.13;;
48789;SDS011;41718;51.980;5.734;2023-01-25T16:04:51;47.55;;;18.92;;
48789;SDS011;41718;51.980;5.734;2023-01-25T16:09:53;59.97;;;27.48;;
48789;SDS011;41718;51.980;5.734;2023-01-25T16:14:55;51.60;;;25.65;;
48789;SDS011;41718;51.980;5.734;2023-01-25T16:19:56;63.92;;;24.25;;
48789;SDS011;41718;51.980;5.734;2023-01-25T16:24:58;57.15;;;25.00;;
48789;SDS011;41718;51.980;5.734;2023-01-25T16:30:01;62.22;;;29.83;;
48789;SDS011;41718;51.980;5.734;2023-01-25T16:35:04;58.05;;;27.45;;
48789;SDS011;41718;51.980;5.734;2023-01-25T16:40:10;29.50;;;12.10;;
48789;SDS011;41718;51.980;5.734;2023-01-25T16:45:21;32.63;;;14.57;;
48789;SDS011;41718;51.980;5.734;2023-01-25T16:50:24;65.30;;;28.27;;
48789;SDS011;41718;51.980;5.734;2023-01-25T16:55:26;21.55;;;8.65;;
48789;SDS011;41718;51.980;5.734;2023-01-25T17:00:28;43.08;;;17.85;;
48789;SDS011;41718;51.980;5.734;2023-01-25T17:05:30;59.20;;;25.83;;
48789;SDS011;41718;51.980;5.734;2023-01-25T17:10:34;57.38;;;28.02;;
48789;SDS011;41718;51.980;5.734;2023-01-25T17:15:37;61.25;;;27.67;;
48789;SDS011;41718;51.980;5.734;2023-01-25T17:20:40;68.30;;;30.35;;
48789;SDS011;41718;51.980;5.734;2023-01-25T17:25:42;65.43;;;28.27;;
48789;SDS011;41718;51.980;5.734;2023-01-25T17:30:44;57.22;;;25.42;;
48789;SDS011;41718;51.980;5.734;2023-01-25T17:35:46;57.03;;;25.92;;
48789;SDS011;41718;51.980;5.734;2023-01-25T17:40:47;64.53;;;26.98;;
48789;SDS011;41718;51.980;5.734;2023-01-25T17:45:49;68.32;;;28.50;;
48789;SDS011;41718;51.980;5.734;2023-01-25T17:51:00;57.20;;;23.40;;
48789;SDS011;41718;51.980;5.734;2023-01-25T17:56:02;53.13;;;23.83;;
48789;SDS011;41718;51.980;5.734;2023-01-25T18:01:18;56.03;;;22.48;;
48789;SDS011;41718;51.980;5.734;2023-01-25T18:06:23;65.50;;;33.63;;
48789;SDS011;41718;51.980;5.734;2023-01-25T18:11:30;60.08;;;26.17;;
48789;SDS011;41718;51.980;5.734;2023-01-25T18:21:36;60.45;;;25.83;;
48789;SDS011;41718;51.980;5.734;2023-01-25T18:26:38;67.20;;;27.65;;
48789;SDS011;41718;51.980;5.734;2023-01-25T18:31:41;68.93;;;28.15;;
48789;SDS011;41718;51.980;5.734;2023-01-25T18:36:42;69.40;;;29.92;;
48789;SDS011;41718;51.980;5.734;2023-01-25T18:41:44;64.65;;;29.23;;
48789;SDS011;41718;51.980;5.734;2023-01-25T18:46:46;75.78;;;31.67;;
48789;SDS011;41718;51.980;5.734;2023-01-25T18:51:48;72.20;;;29.27;;
48789;SDS011;41718;51.980;5.734;2023-01-25T18:57:09;75.18;;;31.42;;
48789;SDS011;41718;51.980;5.734;2023-01-25T19:02:13;78.25;;;33.92;;
48789;SDS011;41718;51.980;5.734;2023-01-25T19:07:16;80.93;;;35.45;;
48789;SDS011;41718;51.980;5.734;2023-01-25T19:12:18;82.75;;;37.08;;
48789;SDS011;41718;51.980;5.734;2023-01-25T19:17:19;86.57;;;36.65;;
48789;SDS011;41718;51.980;5.734;2023-01-25T19:22:21;83.72;;;35.67;;
48789;SDS011;41718;51.980;5.734;2023-01-25T19:27:24;79.28;;;31.83;;
48789;SDS011;41718;51.980;5.734;2023-01-25T19:32:27;88.32;;;34.25;;
48789;SDS011;41718;51.980;5.734;2023-01-25T19:37:28;83.03;;;37.22;;
48789;SDS011;41718;51.980;5.734;2023-01-25T19:42:33;89.20;;;37.75;;
48789;SDS011;41718;51.980;5.734;2023-01-25T19:47:34;80.03;;;33.90;;
48789;SDS011;41718;51.980;5.734;2023-01-25T19:52:37;76.13;;;30.50;;
48789;SDS011;41718;51.980;5.734;2023-01-25T19:57:38;88.93;;;33.28;;
48789;SDS011;41718;51.980;5.734;2023-01-25T20:02:40;97.82;;;39.60;;
48789;SDS011;41718;51.980;5.734;2023-01-25T20:07:46;87.90;;;31.77;;
48789;SDS011;41718;51.980;5.734;2023-01-25T20:12:54;93.63;;;37.65;;
48789;SDS011;41718;51.980;5.734;2023-01-25T20:17:57;100.68;;;41.65;;
48789;SDS011;41718;51.980;5.734;2023-01-25T20:22:58;89.72;;;34.15;;
48789;SDS011;41718;51.980;5.734;2023-01-25T20:28:00;106.63;;;38.97;;
48789;SDS011;41718;51.980;5.734;2023-01-25T20:33:02;92.40;;;36.67;;
48789;SDS011;41718;51.980;5.734;2023-01-25T20:38:05;115.25;;;45.65;;
48789;SDS011;41718;51.980;5.734;2023-01-25T20:43:06;110.45;;;45.38;;
48789;SDS011;41718;51.980;5.734;2023-01-25T20:48:08;109.15;;;42.25;;
48789;SDS011;41718;51.980;5.734;2023-01-25T20:53:09;106.80;;;44.25;;
48789;SDS011;41718;51.980;5.734;2023-01-25T20:58:12;100.25;;;43.30;;
48789;SDS011;41718;51.980;5.734;2023-01-25T21:03:14;109.68;;;42.67;;
48789;SDS011;41718;51.980;5.734;2023-01-25T21:08:18;115.50;;;45.90;;
48789;SDS011;41718;51.980;5.734;2023-01-25T21:13:20;102.25;;;35.65;;
48789;SDS011;41718;51.980;5.734;2023-01-25T21:18:27;117.55;;;45.60;;
48789;SDS011;41718;51.980;5.734;2023-01-25T21:23:30;117.40;;;44.92;;
48789;SDS011;41718;51.980;5.734;2023-01-25T21:28:36;124.80;;;46.97;;
48789;SDS011;41718;51.980;5.734;2023-01-25T21:33:38;116.65;;;44.50;;
48789;SDS011;41718;51.980;5.734;2023-01-25T21:38:41;108.95;;;43.30;;
48789;SDS011;41718;51.980;5.734;2023-01-25T21:43:44;119.00;;;44.60;;
48789;SDS011;41718;51.980;5.734;2023-01-25T21:49:06;115.30;;;43.05;;
48789;SDS011;41718;51.980;5.734;2023-01-25T21:54:30;107.28;;;41.75;;
48789;SDS011;41718;51.980;5.734;2023-01-25T21:59:35;109.68;;;41.05;;
48789;SDS011;41718;51.980;5.734;2023-01-25T22:04:38;121.68;;;46.17;;
48789;SDS011;41718;51.980;5.734;2023-01-25T22:09:40;127.32;;;47.20;;
48789;SDS011;41718;51.980;5.734;2023-01-25T22:14:42;104.15;;;42.90;;
48789;SDS011;41718;51.980;5.734;2023-01-25T22:19:45;123.25;;;47.08;;
48789;SDS011;41718;51.980;5.734;2023-01-25T22:24:53;110.35;;;42.15;;
48789;SDS011;41718;51.980;5.734;2023-01-25T22:29:54;115.00;;;43.58;;
48789;SDS011;41718;51.980;5.734;2023-01-25T22:34:58;109.18;;;40.97;;
48789;SDS011;41718;51.980;5.734;2023-01-25T22:39:59;97.57;;;39.10;;
48789;SDS011;41718;51.980;5.734;2023-01-25T22:45:04;96.35;;;39.05;;
48789;SDS011;41718;51.980;5.734;2023-01-25T22:50:08;101.80;;;40.92;;
48789;SDS011;41718;51.980;5.734;2023-01-25T22:55:10;101.50;;;42.25;;
48789;SDS011;41718;51.980;5.734;2023-01-25T23:00:13;106.78;;;45.13;;
48789;SDS011;41718;51.980;5.734;2023-01-25T23:05:15;104.07;;;41.55;;
48789;SDS011;41718;51.980;5.734;2023-01-25T23:10:16;98.88;;;40.65;;
48789;SDS011;41718;51.980;5.734;2023-01-25T23:15:18;99.47;;;40.75;;
48789;SDS011;41718;51.980;5.734;2023-01-25T23:20:20;107.75;;;42.20;;
48789;SDS011;41718;51.980;5.734;2023-01-25T23:25:21;81.07;;;34.70;;
48789;SDS011;41718;51.980;5.734;2023-01-25T23:30:23;91.75;;;39.15;;
48789;SDS011;41718;51.980;5.734;2023-01-25T23:35:25;86.85;;;36.83;;
48789;SDS011;41718;51.980;5.734;2023-01-25T23:40:27;83.32;;;35.10;;
48789;SDS011;41718;51.980;5.734;2023-01-25T23:45:28;94.22;;;37.13;;
48789;SDS011;41718;51.980;5.734;2023-01-25T23:50:30;94.47;;;35.97;;
48789;SDS011;41718;51.980;5.734;2023-01-25T23:55:31;74.35;;;31.38;;
